Time;durP1;ratioP1;P1;durP2;ratioP2;P2;SDS_P1;SDS_P2;PMS_P1;PMS_P2;Temp;Humidity;BMP_temperature;BMP_pressure;BME280_temperature;BME280_humidity;BME280_pressure;Samples;Min_cycle;Max_cycle;Signal;HPM_P1;HPM_P2
2023/12/20 00:01:12;;;;;;;17.58;4.32;;;;;;;;;;6287025;22;20018;-90
2023/12/20 00:03:57;;;;;;;23.63;4.20;;;;;;;;;;6286721;22;20491;-90
2023/12/20 00:06:40;;;;;;;20.73;4.18;;;;;;;;;;6286897;22;20018;-89
2023/12/20 00:09:24;;;;;;;30.67;4.88;;;;;;;;;;6286745;22;20068;-89
2023/12/20 00:12:08;;;;;;;17.00;4.82;;;;;;;;;;6284699;22;20061;-89
2023/12/20 00:14:59;;;;;;;17.35;4.53;;;;;;;;;;6307328;22;20542;-89
2023/12/20 00:17:43;;;;;;;17.73;4.10;;;;;;;;;;6264825;22;20072;-89
2023/12/20 00:20:28;;;;;;;24.08;4.63;;;;;;;;;;6285070;22;20094;-89
2023/12/20 00:23:11;;;;;;;20.77;3.67;;;;;;;;;;6285269;22;20388;-89
2023/12/20 00:25:56;;;;;;;24.73;4.13;;;;;;;;;;6286558;22;20022;-89
2023/12/20 00:28:40;;;;;;;16.92;4.22;;;;;;;;;;6285996;22;20026;-89
2023/12/20 00:31:24;;;;;;;21.92;4.65;;;;;;;;;;6285956;22;20463;-89
2023/12/20 00:34:08;;;;;;;17.33;3.38;;;;;;;;;;6286575;22;20014;-89
2023/12/20 00:40:26;;;;;;;;;;;;;;;;;;6309707;22;20330;-89
2023/12/20 00:43:11;;;;;;;26.42;4.53;;;;;;;;;;6286655;22;19930;-90
2023/12/20 00:45:55;;;;;;;16.90;3.92;;;;;;;;;;6286406;22;20384;-90
2023/12/20 00:48:41;;;;;;;19.13;4.18;;;;;;;;;;6286575;22;20018;-89
2023/12/20 00:51:25;;;;;;;23.42;4.55;;;;;;;;;;6287627;22;20049;-89
2023/12/20 00:54:09;;;;;;;19.73;4.13;;;;;;;;;;6286569;22;20021;-89
2023/12/20 00:56:53;;;;;;;22.23;4.13;;;;;;;;;;6286613;22;20072;-89
2023/12/20 00:59:37;;;;;;;17.08;4.22;;;;;;;;;;6286437;22;20018;-89
2023/12/20 01:02:21;;;;;;;16.17;3.90;;;;;;;;;;6285671;22;20046;-89
2023/12/20 01:05:07;;;;;;;15.18;3.63;;;;;;;;;;6285566;22;20045;-90
2023/12/20 01:07:51;;;;;;;27.00;5.15;;;;;;;;;;6286597;22;20037;-90
2023/12/20 01:10:34;;;;;;;19.10;4.70;;;;;;;;;;6287190;22;20018;-89
2023/12/20 01:13:18;;;;;;;22.85;4.75;;;;;;;;;;6286732;22;20018;-89
2023/12/20 01:16:02;;;;;;;17.55;4.53;;;;;;;;;;6287200;22;20017;-89
2023/12/20 01:18:47;;;;;;;18.50;4.45;;;;;;;;;;6286096;22;20393;-88
2023/12/20 01:21:31;;;;;;;16.60;4.13;;;;;;;;;;6284614;22;20046;-88
2023/12/20 01:24:14;;;;;;;19.63;4.30;;;;;;;;;;6284493;22;20337;-89
2023/12/20 01:26:58;;;;;;;16.40;4.03;;;;;;;;;;6284730;22;20019;-89
2023/12/20 01:29:42;;;;;;;14.43;4.38;;;;;;;;;;6215386;22;20081;-89
2023/12/20 01:32:26;;;;;;;22.10;5.68;;;;;;;;;;6150597;23;20091;-89
2023/12/20 01:35:12;;;;;;;18.13;4.18;;;;;;;;;;6150380;23;20016;-89
2023/12/20 01:37:56;;;;;;;20.17;4.25;;;;;;;;;;6151810;23;20016;-90
2023/12/20 01:40:40;;;;;;;21.88;4.57;;;;;;;;;;6152003;23;20078;-89
2023/12/20 01:43:24;;;;;;;22.50;4.63;;;;;;;;;;6154506;23;20074;-90
2023/12/20 01:46:08;;;;;;;25.63;5.95;;;;;;;;;;6153960;23;20028;-89
2023/12/20 01:48:53;;;;;;;14.70;4.22;;;;;;;;;;6152969;23;20021;-89
2023/12/20 01:51:37;;;;;;;19.88;4.53;;;;;;;;;;6152171;23;20021;-90
2023/12/20 01:54:21;;;;;;;18.33;4.07;;;;;;;;;;6152604;23;20016;-90
2023/12/20 01:57:08;;;;;;;18.90;5.85;;;;;;;;;;6152522;23;20059;-90
2023/12/20 01:59:54;;;;;;;15.88;4.00;;;;;;;;;;6151961;23;20086;-90
2023/12/20 02:02:42;;;;;;;23.58;4.38;;;;;;;;;;6153035;23;20332;-89
2023/12/20 02:05:27;;;;;;;23.05;4.65;;;;;;;;;;6152505;23;20016;-90
2023/12/20 02:08:11;;;;;;;19.98;4.70;;;;;;;;;;6152420;23;20028;-90
2023/12/20 02:10:56;;;;;;;18.25;4.95;;;;;;;;;;6153702;23;20020;-89
2023/12/20 02:13:40;;;;;;;18.83;5.13;;;;;;;;;;6155049;23;20064;-89
2023/12/20 02:16:24;;;;;;;14.88;4.60;;;;;;;;;;6154558;23;20044;-89
2023/12/20 02:19:13;;;;;;;18.23;5.15;;;;;;;;;;6154010;23;20052;-89
2023/12/20 02:22:09;;;;;;;20.02;4.75;;;;;;;;;;6154842;23;20067;-89
2023/12/20 02:25:02;;;;;;;15.75;5.05;;;;;;;;;;6153433;23;20063;-89
2023/12/20 02:27:47;;;;;;;30.38;4.93;;;;;;;;;;6152889;23;20024;-89
2023/12/20 02:30:31;;;;;;;20.55;4.65;;;;;;;;;;6152863;23;20470;-89
2023/12/20 02:33:15;;;;;;;23.10;5.88;;;;;;;;;;6154610;23;20016;-89
2023/12/20 02:35:59;;;;;;;23.73;4.47;;;;;;;;;;6153435;23;20065;-89
2023/12/20 02:38:43;;;;;;;23.00;5.85;;;;;;;;;;6154788;23;20043;-89
2023/12/20 02:41:27;;;;;;;19.08;4.97;;;;;;;;;;6154513;23;20021;-89
2023/12/20 02:44:11;;;;;;;18.90;4.57;;;;;;;;;;6154995;23;20024;-89
2023/12/20 02:46:55;;;;;;;23.60;4.78;;;;;;;;;;6154677;23;20020;-91
2023/12/20 02:49:39;;;;;;;20.40;5.03;;;;;;;;;;6152753;23;20067;-89
2023/12/20 02:52:23;;;;;;;33.10;5.18;;;;;;;;;;6153207;23;20059;-90
2023/12/20 02:55:07;;;;;;;21.85;4.30;;;;;;;;;;6154802;23;20016;-90
2023/12/20 02:57:51;;;;;;;25.00;4.82;;;;;;;;;;6154613;23;20020;-89
2023/12/20 03:00:36;;;;;;;20.30;5.00;;;;;;;;;;6155089;23;20044;-90
2023/12/20 03:03:20;;;;;;;20.30;4.78;;;;;;;;;;6154900;23;20105;-90
2023/12/20 03:06:06;;;;;;;23.27;4.43;;;;;;;;;;6155586;23;20400;-89
2023/12/20 03:08:50;;;;;;;18.05;4.20;;;;;;;;;;6154457;23;20474;-91
2023/12/20 03:11:34;;;;;;;21.17;5.20;;;;;;;;;;6152061;23;20039;-90
2023/12/20 03:14:18;;;;;;;22.75;4.75;;;;;;;;;;6152403;23;20467;-90
2023/12/20 03:17:02;;;;;;;24.42;4.22;;;;;;;;;;6152395;23;20016;-88
2023/12/20 03:19:46;;;;;;;17.65;4.10;;;;;;;;;;6151984;23;20102;-90
2023/12/20 03:22:30;;;;;;;18.95;4.00;;;;;;;;;;6151549;23;20021;-88
2023/12/20 03:25:14;;;;;;;21.25;5.07;;;;;;;;;;6152515;23;20017;-88
2023/12/20 03:27:58;;;;;;;15.45;3.90;;;;;;;;;;6151557;23;20040;-90
2023/12/20 03:30:42;;;;;;;22.38;4.07;;;;;;;;;;6151995;23;20025;-88
2023/12/20 03:33:26;;;;;;;19.27;4.93;;;;;;;;;;6151817;23;20534;-91
2023/12/20 03:36:09;;;;;;;21.73;4.72;;;;;;;;;;6152615;23;20355;-90
2023/12/20 03:38:54;;;;;;;24.00;5.30;;;;;;;;;;6152649;23;20020;-91
2023/12/20 03:41:38;;;;;;;25.33;4.35;;;;;;;;;;6152932;23;20063;-91
2023/12/20 03:44:22;;;;;;;21.00;4.68;;;;;;;;;;6153218;23;20144;-90
2023/12/20 03:47:06;;;;;;;20.38;4.97;;;;;;;;;;6153349;23;20072;-89
2023/12/20 03:49:49;;;;;;;20.23;4.20;;;;;;;;;;6153840;23;20067;-89
2023/12/20 03:52:33;;;;;;;19.63;4.88;;;;;;;;;;6153912;23;20514;-90
2023/12/20 03:55:17;;;;;;;21.55;4.97;;;;;;;;;;6154083;23;20021;-89
2023/12/20 03:58:01;;;;;;;21.65;4.32;;;;;;;;;;6153709;23;20075;-88
2023/12/20 04:00:45;;;;;;;20.00;3.75;;;;;;;;;;6153816;23;20047;-90
2023/12/20 04:03:29;;;;;;;23.38;5.07;;;;;;;;;;6152296;23;20054;-89
2023/12/20 04:06:17;;;;;;;23.08;4.15;;;;;;;;;;6152366;23;20025;-89
2023/12/20 04:09:01;;;;;;;25.40;5.93;;;;;;;;;;6153075;23;20067;-90
2023/12/20 04:11:45;;;;;;;22.13;5.32;;;;;;;;;;6153848;23;20016;-90
2023/12/20 04:14:29;;;;;;;20.00;3.97;;;;;;;;;;6153755;23;20056;-91
2023/12/20 04:17:16;;;;;;;24.50;4.78;;;;;;;;;;6153998;23;20036;-90
2023/12/20 04:20:03;;;;;;;20.88;3.70;;;;;;;;;;6154385;23;20071;-90
2023/12/20 04:22:51;;;;;;;12.90;3.55;;;;;;;;;;6153598;23;20470;-89
2023/12/20 04:25:53;;;;;;;11.90;3.20;;;;;;;;;;6153894;23;20048;-89
2023/12/20 04:28:39;;;;;;;19.15;3.28;;;;;;;;;;6160291;22;20080;-89
2023/12/20 04:31:23;;;;;;;20.55;3.83;;;;;;;;;;6288400;22;20034;-89
2023/12/20 04:34:10;;;;;;;17.17;3.25;;;;;;;;;;6289519;22;20329;-90
2023/12/20 04:36:54;;;;;;;19.42;3.78;;;;;;;;;;6289194;22;20464;-90
2023/12/20 04:39:38;;;;;;;16.92;3.92;;;;;;;;;;6286607;22;20452;-89
2023/12/20 04:42:28;;;;;;;15.95;4.00;;;;;;;;;;6287604;22;20157;-88
2023/12/20 04:48:39;;;;;;;17.30;3.75;;;;;;;;;;6310023;22;20069;-88
2023/12/20 04:51:23;;;;;;;16.45;4.10;;;;;;;;;;6287149;22;20022;-90
2023/12/20 04:54:07;;;;;;;19.10;4.07;;;;;;;;;;6287020;22;20019;-90
2023/12/20 05:08:06;;;;;;;22.88;5.07;;;;;;;;;;6232920;22;20103;-89
2023/12/20 05:24:45;;;;;;;18.55;4.50;;;;;;;;;;6311166;22;20464;-89
2023/12/20 05:27:31;;;;;;;11.00;3.55;;;;;;;;;;6287075;22;20066;-89
2023/12/20 05:34:08;;;;;;;25.63;5.10;;;;;;;;;;6154254;23;20040;-90
2023/12/20 05:36:54;;;;;;;20.17;3.95;;;;;;;;;;6153361;23;20020;-90
2023/12/20 05:39:41;;;;;;;15.00;3.50;;;;;;;;;;6152842;23;20020;-89
2023/12/20 05:42:28;;;;;;;15.73;3.63;;;;;;;;;;6152671;23;20040;-89
2023/12/20 05:45:13;;;;;;;19.95;3.90;;;;;;;;;;6153134;23;20029;-89
2023/12/20 05:48:14;;;;;;;23.48;3.92;;;;;;;;;;6153042;23;20505;-90
2023/12/20 05:54:30;;;;;;;22.45;4.07;;;;;;;;;;6153935;23;20036;-89
2023/12/20 05:57:17;;;;;;;24.33;4.18;;;;;;;;;;6152923;23;20059;-88
2023/12/20 06:00:03;;;;;;;17.55;3.65;;;;;;;;;;6152822;23;20024;-89
2023/12/20 06:03:05;;;;;;;21.70;5.45;;;;;;;;;;6152309;23;20101;-89
2023/12/20 06:05:57;;;;;;;13.65;5.03;;;;;;;;;;6153635;23;20064;-90
2023/12/20 06:12:42;;;;;;;26.83;4.45;;;;;;;;;;6216118;23;20396;-89
2023/12/20 06:19:01;;;;;;;;;;;;;;;;;;6218743;23;20027;-89
2023/12/20 06:21:45;;;;;;;16.85;3.55;;;;;;;;;;6155539;23;19967;-89
2023/12/20 06:24:29;;;;;;;19.77;4.20;;;;;;;;;;6152373;23;20521;-89
2023/12/20 06:27:22;;;;;;;10.68;3.38;;;;;;;;;;6152512;23;20092;-89
2023/12/20 06:30:07;;;;;;;22.65;4.53;;;;;;;;;;6152547;23;20051;-90
2023/12/20 06:33:04;;;;;;;13.52;3.50;;;;;;;;;;6151777;23;20070;-88
2023/12/20 06:35:49;;;;;;;17.48;3.80;;;;;;;;;;6152405;23;20056;-90
2023/12/20 06:42:13;;;;;;;17.63;3.78;;;;;;;;;;6153945;23;20044;-89
2023/12/20 06:44:57;;;;;;;25.60;3.95;;;;;;;;;;6152243;23;20071;-90
2023/12/20 06:47:44;;;;;;;21.45;5.38;;;;;;;;;;6152231;23;20024;-90
2023/12/20 06:50:41;;;;;;;8.45;2.95;;;;;;;;;;6151963;23;20015;-89
2023/12/20 06:53:25;;;;;;;15.25;3.72;;;;;;;;;;6151720;23;20517;-89
2023/12/20 06:56:11;;;;;;;12.20;3.20;;;;;;;;;;6151784;23;20527;-89
2023/12/20 06:58:59;;;;;;;10.98;3.47;;;;;;;;;;6151802;23;20024;-89
2023/12/20 07:01:51;;;;;;;20.63;4.25;;;;;;;;;;6151790;23;20340;-89
2023/12/20 07:04:39;;;;;;;16.13;3.80;;;;;;;;;;6151830;23;20559;-89
2023/12/20 07:07:24;;;;;;;15.55;3.53;;;;;;;;;;6150487;23;20378;-90
2023/12/20 07:10:16;;;;;;;13.63;3.33;;;;;;;;;;6151308;23;20021;-90
2023/12/20 07:17:11;;;;;;;13.52;2.70;;;;;;;;;;6155813;23;20008;-90
2023/12/20 07:23:55;;;;;;;15.30;3.28;;;;;;;;;;6154129;23;20025;-89
2023/12/20 07:27:04;;;;;;;9.15;2.50;;;;;;;;;;6152347;23;20016;-90
2023/12/20 07:37:22;;;;;;;13.82;3.92;;;;;;;;;;6149143;23;20079;-89
2023/12/20 07:51:12;;;;;;;12.85;3.35;;;;;;;;;;6128167;23;20137;-89
2023/12/20 07:53:55;;;;;;;10.88;3.42;;;;;;;;;;6155191;23;20029;-89
2023/12/20 07:56:40;;;;;;;15.00;3.28;;;;;;;;;;6209946;23;20475;-89
2023/12/20 07:59:24;;;;;;;14.57;3.30;;;;;;;;;;6209971;23;20021;-89
2023/12/20 08:02:09;;;;;;;12.45;3.67;;;;;;;;;;6210339;23;20103;-88
2023/12/20 08:04:56;;;;;;;18.60;3.90;;;;;;;;;;6123310;23;20025;-89
2023/12/20 08:07:40;;;;;;;15.70;3.30;;;;;;;;;;6209621;23;20025;-89
2023/12/20 08:10:25;;;;;;;9.35;3.28;;;;;;;;;;6212813;23;20021;-89
2023/12/20 08:13:09;;;;;;;18.83;3.25;;;;;;;;;;6209805;23;20024;-88
2023/12/20 08:15:53;;;;;;;24.95;4.13;;;;;;;;;;6122500;23;20052;-87
2023/12/20 08:18:40;;;;;;;9.75;2.90;;;;;;;;;;6211160;23;20440;-91
2023/12/20 08:24:55;;;;;;;10.70;2.92;;;;;;;;;;6125814;23;20017;-87
2023/12/20 08:27:42;;;;;;;11.93;3.00;;;;;;;;;;6214900;23;20021;-87
2023/12/20 08:30:45;;;;;;;15.10;3.15;;;;;;;;;;6216865;23;20427;-89
2023/12/20 08:33:29;;;;;;;10.70;3.50;;;;;;;;;;6213449;23;20036;-88
2023/12/20 08:36:13;;;;;;;9.32;2.40;;;;;;;;;;6213499;23;20262;-92
2023/12/20 08:38:57;;;;;;;7.35;2.92;;;;;;;;;;6178127;22;20044;-90
2023/12/20 08:41:41;;;;;;;14.75;3.65;;;;;;;;;;6151894;23;20075;-89
2023/12/20 08:44:25;;;;;;;15.00;3.17;;;;;;;;;;6150443;23;20044;-87
2023/12/20 08:47:13;;;;;;;13.90;2.80;;;;;;;;;;6159296;23;20029;-90
2023/12/20 08:49:59;;;;;;;10.48;2.80;;;;;;;;;;6165401;23;20017;-89
2023/12/20 08:52:44;;;;;;;10.85;3.00;;;;;;;;;;6152514;23;20044;-89
2023/12/20 08:55:28;;;;;;;16.17;3.00;;;;;;;;;;6151449;23;20463;-89
2023/12/20 08:58:13;;;;;;;12.90;2.85;;;;;;;;;;6152127;23;20083;-90
2023/12/20 09:00:57;;;;;;;8.85;2.78;;;;;;;;;;6151609;23;20036;-89
2023/12/20 09:03:41;;;;;;;12.05;3.50;;;;;;;;;;6151699;23;20017;-90
2023/12/20 09:06:25;;;;;;;13.00;3.03;;;;;;;;;;6151810;23;20071;-91
2023/12/20 09:09:13;;;;;;;15.27;2.78;;;;;;;;;;6152261;23;20040;-89
2023/12/20 09:11:57;;;;;;;9.60;3.47;;;;;;;;;;6152041;23;20098;-89
2023/12/20 09:14:41;;;;;;;15.65;3.50;;;;;;;;;;6151969;23;20020;-90
2023/12/20 09:17:25;;;;;;;13.48;3.25;;;;;;;;;;6152192;23;20020;-89
2023/12/20 09:20:13;;;;;;;11.23;3.00;;;;;;;;;;6152100;23;20020;-89
2023/12/20 09:22:58;;;;;;;10.25;3.25;;;;;;;;;;6152966;23;20064;-90
2023/12/20 09:25:42;;;;;;;17.95;3.20;;;;;;;;;;6153093;23;20021;-90
2023/12/20 09:28:26;;;;;;;10.25;3.13;;;;;;;;;;6152900;23;20078;-89
2023/12/20 09:31:48;;;;;;;9.98;2.95;;;;;;;;;;6155873;23;20063;-90
2023/12/20 09:34:32;;;;;;;13.00;2.58;;;;;;;;;;6153134;23;20097;-89
2023/12/20 09:37:16;;;;;;;14.18;3.13;;;;;;;;;;6156416;22;20017;-90
2023/12/20 09:39:59;;;;;;;5.72;2.90;;;;;;;;;;6286979;22;20021;-90
2023/12/20 09:43:02;;;;;;;16.45;4.20;;;;;;;;;;6287647;22;20019;-91
2023/12/20 09:45:47;;;;;;;4.80;2.50;;;;;;;;;;6286715;22;20050;-89
2023/12/20 09:48:55;;;;;;;4.28;2.40;;;;;;;;;;6287187;22;20093;-89
2023/12/20 09:51:39;;;;;;;6.05;2.20;;;;;;;;;;6309630;22;20014;-90
2023/12/20 09:54:23;;;;;;;5.43;2.03;;;;;;;;;;6287175;22;20017;-90
2023/12/20 09:57:07;;;;;;;4.80;2.20;;;;;;;;;;6287169;22;20018;-89
2023/12/20 09:59:54;;;;;;;4.78;2.40;;;;;;;;;;6286889;22;20026;-90
2023/12/20 10:02:40;;;;;;;3.55;2.33;;;;;;;;;;6286683;22;20045;-89
2023/12/20 10:05:30;;;;;;;4.18;2.00;;;;;;;;;;6286768;22;20081;-90
2023/12/20 10:08:14;;;;;;;5.70;2.08;;;;;;;;;;6286957;22;20022;-89
2023/12/20 10:11:02;;;;;;;7.22;3.00;;;;;;;;;;6286914;22;20018;-89
2023/12/20 10:13:47;;;;;;;6.00;1.80;;;;;;;;;;6286884;22;20018;-90
2023/12/20 10:16:35;;;;;;;3.17;1.83;;;;;;;;;;6287352;22;20092;-90
2023/12/20 10:19:19;;;;;;;5.10;2.03;;;;;;;;;;6287022;22;20018;-90
2023/12/20 10:22:09;;;;;;;6.18;2.47;;;;;;;;;;6287039;22;20022;-90
2023/12/20 10:24:53;;;;;;;4.25;2.55;;;;;;;;;;6287211;22;20022;-90
2023/12/20 10:27:37;;;;;;;4.97;2.13;;;;;;;;;;6288275;22;20154;-90
2023/12/20 10:30:21;;;;;;;5.25;2.60;;;;;;;;;;6287806;22;20014;-89
2023/12/20 10:33:06;;;;;;;5.78;2.97;;;;;;;;;;6286960;22;20014;-90
2023/12/20 10:35:50;;;;;;;6.38;2.42;;;;;;;;;;6288119;22;20069;-90
2023/12/20 10:38:35;;;;;;;4.15;2.92;;;;;;;;;;6206842;22;20029;-90
2023/12/20 10:41:22;;;;;;;2.70;2.50;;;;;;;;;;6152127;23;20024;-90
2023/12/20 10:44:08;;;;;;;4.10;2.28;;;;;;;;;;6152344;23;20021;-91
2023/12/20 10:46:57;;;;;;;2.20;2.00;;;;;;;;;;6152561;23;20075;-90
2023/12/20 10:49:42;;;;;;;2.40;1.85;;;;;;;;;;6152630;23;20079;-90
2023/12/20 10:52:27;;;;;;;1.80;1.70;;;;;;;;;;6153752;23;20021;-90
2023/12/20 10:55:14;;;;;;;1.75;1.65;;;;;;;;;;6153620;23;20482;-89
2023/12/20 10:58:01;;;;;;;1.80;1.70;;;;;;;;;;6154023;23;20120;-89
2023/12/20 11:00:50;;;;;;;2.00;1.90;;;;;;;;;;6153032;23;20490;-89
2023/12/20 11:03:36;;;;;;;1.90;1.80;;;;;;;;;;6153564;23;20024;-90
2023/12/20 11:10:01;;;;;;;3.77;3.20;;;;;;;;;;6155094;23;20526;-89
2023/12/20 11:12:48;;;;;;;6.80;2.38;;;;;;;;;;6153565;23;20285;-90
2023/12/20 11:15:32;;;;;;;12.68;3.17;;;;;;;;;;6153758;23;20024;-90
2023/12/20 11:18:19;;;;;;;10.50;3.20;;;;;;;;;;6153491;23;20025;-90
2023/12/20 11:21:11;;;;;;;12.27;3.15;;;;;;;;;;6153710;23;20021;-90
2023/12/20 11:23:56;;;;;;;5.22;2.65;;;;;;;;;;6154272;23;20044;-89
2023/12/20 11:26:46;;;;;;;10.68;2.67;;;;;;;;;;6154484;23;20079;-90
2023/12/20 11:29:37;;;;;;;7.40;2.75;;;;;;;;;;6154588;23;20044;-89
2023/12/20 11:32:33;;;;;;;11.25;2.95;;;;;;;;;;6155212;23;20020;-91
2023/12/20 11:35:19;;;;;;;8.85;2.38;;;;;;;;;;6154654;23;20458;-90
2023/12/20 11:38:04;;;;;;;13.02;3.10;;;;;;;;;;6153174;23;20455;-90
2023/12/20 11:40:50;;;;;;;11.85;2.70;;;;;;;;;;6153741;23;20075;-90
2023/12/20 11:43:37;;;;;;;8.43;3.03;;;;;;;;;;6153256;23;20069;-90
2023/12/20 11:46:22;;;;;;;23.52;3.72;;;;;;;;;;6153264;23;20066;-89
2023/12/20 11:49:06;;;;;;;20.63;4.60;;;;;;;;;;6153697;23;20067;-90
2023/12/20 11:51:51;;;;;;;21.13;4.45;;;;;;;;;;6153351;23;20071;-89
2023/12/20 12:02:20;;;;;;;;;;;;;;;;;;;;;
2023/12/20 12:05:26;;;;;;;16.05;3.92;;;;;;;;;;6150743;23;20016;-90
2023/12/20 12:08:39;;;;;;;22.92;5.50;;;;;;;;;;6304700;22;20101;-87
2023/12/20 12:11:26;;;;;;;8.60;3.30;;;;;;;;;;6286365;22;20065;-88
2023/12/20 12:14:11;;;;;;;14.45;3.85;;;;;;;;;;6305678;22;20487;-86
2023/12/20 12:16:55;;;;;;;10.82;4.07;;;;;;;;;;6283643;22;20038;-87
2023/12/20 12:19:40;;;;;;;14.05;3.85;;;;;;;;;;6284047;22;20353;-87
2023/12/20 12:22:27;;;;;;;18.73;4.32;;;;;;;;;;6284389;22;20021;-86
2023/12/20 12:25:12;;;;;;;13.77;4.47;;;;;;;;;;6282502;22;20021;-88
2023/12/20 12:27:59;;;;;;;12.95;3.95;;;;;;;;;;6283536;22;20076;-90
2023/12/20 12:30:55;;;;;;;13.80;3.30;;;;;;;;;;6283345;22;20049;-87
2023/12/20 12:33:40;;;;;;;11.98;3.55;;;;;;;;;;6283560;22;20054;-87
2023/12/20 12:36:25;;;;;;;11.50;3.72;;;;;;;;;;6283447;22;20077;-88
2023/12/20 12:39:09;;;;;;;14.25;3.25;;;;;;;;;;6199530;22;20198;-89
2023/12/20 12:41:53;;;;;;;11.93;2.67;;;;;;;;;;6150065;23;20024;-90
2023/12/20 12:44:37;;;;;;;6.20;2.97;;;;;;;;;;6149801;23;20502;-88
2023/12/20 12:47:22;;;;;;;13.63;4.15;;;;;;;;;;6149652;23;20511;-88
2023/12/20 12:50:06;;;;;;;12.55;3.05;;;;;;;;;;6149599;23;20040;-88
2023/12/20 12:52:50;;;;;;;5.75;2.15;;;;;;;;;;6150025;23;20067;-89
2023/12/20 12:55:37;;;;;;;7.43;2.63;;;;;;;;;;6148571;23;20020;-88
2023/12/20 12:58:22;;;;;;;8.90;2.65;;;;;;;;;;6150810;23;20021;-86
2023/12/20 13:01:05;;;;;;;11.93;2.80;;;;;;;;;;6150290;23;20083;-88
2023/12/20 13:03:49;;;;;;;11.60;3.88;;;;;;;;;;6149940;23;20202;-87
2023/12/20 13:06:34;;;;;;;10.25;3.50;;;;;;;;;;6151021;23;20110;-90
2023/12/20 13:09:19;;;;;;;7.13;2.30;;;;;;;;;;6150950;23;20024;-89
2023/12/20 13:12:04;;;;;;;5.75;1.92;;;;;;;;;;6149657;23;20020;-87
2023/12/20 13:21:58;;;;;;;;;;;;;;;;;;6151633;23;20454;-87
2023/12/20 13:24:46;;;;;;;7.93;2.20;;;;;;;;;;6150439;23;19912;-90
2023/12/20 13:27:30;;;;;;;6.03;1.95;;;;;;;;;;6151254;23;20020;-87
2023/12/20 13:30:14;;;;;;;7.43;2.15;;;;;;;;;;6150645;23;20067;-90
2023/12/20 13:32:59;;;;;;;4.20;1.90;;;;;;;;;;6150094;23;20017;-90
2023/12/20 13:35:43;;;;;;;5.45;2.40;;;;;;;;;;6150115;23;20340;-86
2023/12/20 13:38:27;;;;;;;13.73;2.95;;;;;;;;;;6150066;22;20487;-88
2023/12/20 13:41:12;;;;;;;10.00;2.58;;;;;;;;;;6149770;23;20528;-89
2023/12/20 13:43:55;;;;;;;9.88;2.80;;;;;;;;;;6149977;23;20036;-89
2023/12/20 13:46:40;;;;;;;12.07;2.92;;;;;;;;;;6149976;23;20092;-87
2023/12/20 13:49:25;;;;;;;6.30;2.90;;;;;;;;;;6149450;23;20093;-87
2023/12/20 13:52:09;;;;;;;7.72;2.75;;;;;;;;;;6149295;23;20067;-87
2023/12/20 13:54:53;;;;;;;5.45;2.20;;;;;;;;;;6150036;23;20399;-87
2023/12/20 13:57:37;;;;;;;12.18;3.03;;;;;;;;;;6149832;23;20016;-89
2023/12/20 14:00:21;;;;;;;12.60;2.97;;;;;;;;;;6149657;23;20051;-88
2023/12/20 14:03:05;;;;;;;8.20;2.40;;;;;;;;;;6149244;23;20514;-87
2023/12/20 14:06:01;;;;;;;6.80;2.80;;;;;;;;;;6149341;23;20275;-89
2023/12/20 14:08:45;;;;;;;7.95;2.70;;;;;;;;;;6150775;23;20078;-88
2023/12/20 14:11:37;;;;;;;4.65;2.30;;;;;;;;;;6149487;23;20016;-87
2023/12/20 14:14:31;;;;;;;;;;;;;;;;;;;;;
2023/12/20 14:17:25;;;;;;;9.68;2.75;;;;;;;;;;6150877;23;20020;-87
2023/12/20 14:20:12;;;;;;;5.15;2.35;;;;;;;;;;6150809;23;20021;-88
2023/12/20 14:22:56;;;;;;;4.50;2.50;;;;;;;;;;6149393;23;20475;-88
2023/12/20 14:25:45;;;;;;;4.30;2.00;;;;;;;;;;6149431;23;20028;-85
2023/12/20 14:28:28;;;;;;;6.50;2.00;;;;;;;;;;6149640;23;20043;-86
2023/12/20 14:31:13;;;;;;;4.28;2.10;;;;;;;;;;6149519;23;20028;-88
2023/12/20 14:33:57;;;;;;;5.80;2.10;;;;;;;;;;6150858;23;20016;-87
2023/12/20 14:36:42;;;;;;;8.25;2.08;;;;;;;;;;6149477;23;20020;-86
2023/12/20 14:39:25;;;;;;;2.33;1.52;;;;;;;;;;6149483;23;20315;-86
2023/12/20 14:45:47;;;;;;;7.65;2.00;;;;;;;;;;6150990;23;20052;-88
2023/12/20 14:48:32;;;;;;;3.15;2.47;;;;;;;;;;6148984;23;20021;-88
2023/12/20 14:51:16;;;;;;;4.35;2.08;;;;;;;;;;6149651;23;20067;-87
2023/12/20 14:54:01;;;;;;;5.10;4.22;;;;;;;;;;6149958;23;20024;-88
2023/12/20 14:56:45;;;;;;;9.60;5.45;;;;;;;;;;6150713;23;20098;-90
2023/12/20 14:59:30;;;;;;;10.52;5.72;;;;;;;;;;6150044;23;20082;-87
2023/12/20 15:02:18;;;;;;;7.40;2.85;;;;;;;;;;6150984;23;20036;-87
2023/12/20 15:05:03;;;;;;;8.85;5.53;;;;;;;;;;6150374;23;20072;-87
2023/12/20 15:07:48;;;;;;;9.82;3.47;;;;;;;;;;6150616;23;20462;-86
2023/12/20 15:10:32;;;;;;;82.13;43.13;;;;;;;;;;6150504;23;20097;-89
2023/12/20 15:13:16;;;;;;;31.00;18.27;;;;;;;;;;6150700;23;20048;-87
2023/12/20 15:16:00;;;;;;;10.00;3.58;;;;;;;;;;6150943;23;20402;-88
2023/12/20 15:18:44;;;;;;;14.65;5.72;;;;;;;;;;6150904;23;20024;-88
2023/12/20 15:21:39;;;;;;;20.30;4.93;;;;;;;;;;6150862;23;20020;-89
2023/12/20 15:24:38;;;;;;;15.35;3.90;;;;;;;;;;6151366;23;20024;-89
2023/12/20 15:27:43;;;;;;;13.88;3.90;;;;;;;;;;6150567;23;20119;-88
2023/12/20 15:37:38;;;;;;;8.27;3.33;;;;;;;;;;6174600;22;20467;-90
2023/12/20 15:40:24;;;;;;;8.15;3.05;;;;;;;;;;6287389;22;20014;-88
2023/12/20 16:31:40;;;;;;;8.93;3.70;;;;;;;;;;6286690;22;20023;-88
2023/12/20 16:49:29;;;;;;;8.35;2.17;;;;;;;;;;6138706;23;20499;-89
2023/12/20 17:25:19;;;;;;;2.50;1.70;;;;;;;;;;6124430;23;20332;-88
2023/12/20 17:32:28;;;;;;;2.95;1.80;;;;;;;;;;6124503;23;20071;-88
2023/12/20 17:38:55;;;;;;;4.25;2.28;;;;;;;;;;6309557;22;20498;-88
2023/12/20 17:41:43;;;;;;;6.13;2.35;;;;;;;;;;6286533;22;20094;-88
2023/12/20 17:44:30;;;;;;;4.97;2.30;;;;;;;;;;6286478;22;20069;-89
2023/12/20 17:54:29;;;;;;;5.78;2.60;;;;;;;;;;6222672;22;20483;-87
2023/12/20 17:57:13;;;;;;;7.70;2.95;;;;;;;;;;6285899;22;20064;-88
2023/12/20 18:14:52;;;;;;;10.85;3.92;;;;;;;;;;6213629;23;20035;-89
2023/12/20 18:54:22;;;;;;;7.32;2.50;;;;;;;;;;6309582;22;20018;-90
2023/12/20 19:11:53;;;;;;;4.00;1.70;;;;;;;;;;6276686;22;20010;-88
2023/12/20 19:21:49;;;;;;;3.17;1.83;;;;;;;;;;6294797;22;20014;-88
2023/12/20 19:24:35;;;;;;;4.15;2.05;;;;;;;;;;6284784;22;20018;-88
2023/12/20 19:27:23;;;;;;;3.85;2.40;;;;;;;;;;6286368;22;20050;-88
2023/12/20 19:30:16;;;;;;;4.80;2.20;;;;;;;;;;6285972;22;20018;-88
2023/12/20 19:33:00;;;;;;;5.45;2.67;;;;;;;;;;6285340;22;20014;-89
2023/12/20 19:35:50;;;;;;;4.20;2.50;;;;;;;;;;6285636;22;20072;-89
2023/12/20 19:38:37;;;;;;;3.40;2.20;;;;;;;;;;6285606;22;20030;-87
2023/12/20 19:41:21;;;;;;;4.97;2.38;;;;;;;;;;6286241;22;20526;-87
2023/12/20 19:44:10;;;;;;;3.88;1.95;;;;;;;;;;6287213;22;20334;-90
2023/12/20 19:46:54;;;;;;;4.57;2.63;;;;;;;;;;6287901;22;20026;-86
2023/12/20 19:50:04;;;;;;;5.22;2.30;;;;;;;;;;6288088;22;20045;-90
2023/12/20 19:52:58;;;;;;;3.63;2.22;;;;;;;;;;6287982;22;20073;-88
2023/12/20 19:56:02;;;;;;;3.22;2.58;;;;;;;;;;6288531;22;20460;-88
2023/12/20 19:58:46;;;;;;;4.65;2.70;;;;;;;;;;6287995;22;20072;-90
2023/12/20 20:01:30;;;;;;;8.02;2.90;;;;;;;;;;6287358;22;20068;-91
2023/12/20 20:04:14;;;;;;;4.90;2.40;;;;;;;;;;6287466;22;20096;-89
2023/12/20 20:07:14;;;;;;;7.97;3.35;;;;;;;;;;6287467;22;20022;-91
2023/12/20 20:09:58;;;;;;;10.18;3.63;;;;;;;;;;6286577;22;20076;-87
2023/12/20 20:16:16;;;;;;;9.52;2.90;;;;;;;;;;6314490;22;20457;-89
2023/12/20 20:19:02;;;;;;;7.07;3.53;;;;;;;;;;6286111;22;20480;-89
2023/12/20 20:21:47;;;;;;;4.97;2.70;;;;;;;;;;6285966;22;20081;-88
2023/12/20 20:24:31;;;;;;;6.57;2.95;;;;;;;;;;6285539;22;20114;-88
2023/12/20 20:38:05;;;;;;;4.13;3.15;;;;;;;;;;6123629;23;20029;-88
2023/12/20 20:59:14;;;;;;;;;;;;;;;;;;;;;
2023/12/20 21:02:39;;;;;;;10.32;4.93;;;;;;;;;;6123747;23;20440;-90
2023/12/20 21:05:23;;;;;;;13.70;7.75;;;;;;;;;;6210218;23;20111;-90
2023/12/20 21:11:48;;;;;;;6.07;3.83;;;;;;;;;;6125002;23;20514;-89
2023/12/20 21:15:03;;;;;;;7.65;3.47;;;;;;;;;;6210633;23;20063;-90
2023/12/20 21:25:36;;;;;;;4.82;2.70;;;;;;;;;;6124863;23;20013;-90
2023/12/20 21:28:33;;;;;;;7.25;3.13;;;;;;;;;;6210220;23;20344;-91
2023/12/20 21:42:53;;;;;;;;;;;;;;;;;;;;;
2023/12/20 21:53:09;;;;;;;2.45;2.00;;;;;;;;;;6128837;23;20022;-91
2023/12/20 21:56:03;;;;;;;2.05;1.52;;;;;;;;;;6147865;23;20062;-89
2023/12/20 21:59:09;;;;;;;;;;;;;;;;;;;;;
2023/12/20 22:02:00;;;;;;;2.33;1.42;;;;;;;;;;6158726;23;20120;-89
2023/12/20 22:09:03;;;;;;;3.90;1.70;;;;;;;;;;6158592;23;20025;-89
2023/12/20 22:15:44;;;;;;;1.85;1.70;;;;;;;;;;6157726;23;20016;-89
2023/12/20 22:21:57;;;;;;;2.05;1.63;;;;;;;;;;6139557;23;20063;-88
2023/12/20 22:31:56;;;;;;;3.85;2.15;;;;;;;;;;6125922;23;20072;-91
2023/12/20 22:34:54;;;;;;;2.88;2.20;;;;;;;;;;6206736;23;20336;-90
2023/12/20 22:41:22;;;;;;;3.22;1.90;;;;;;;;;;6203296;22;20509;-88
2023/12/20 22:44:23;;;;;;;;;;;;;;;;;;;;;
2023/12/20 22:50:28;;;;;;;3.60;1.95;;;;;;;;;;6308315;22;20026;-91
2023/12/20 22:53:17;;;;;;;2.20;2.00;;;;;;;;;;6285812;22;20547;-89
2023/12/20 22:56:01;;;;;;;2.40;2.20;;;;;;;;;;6308311;22;20064;-89
2023/12/20 22:58:49;;;;;;;3.50;2.20;;;;;;;;;;6286797;22;20345;-88
2023/12/20 23:01:51;;;;;;;2.53;2.08;;;;;;;;;;6308096;22;20061;-90